Time;durP1;ratioP1;P1;durP2;ratioP2;P2;SDS_P1;SDS_P2;PMS_P1;PMS_P2;Temp;Humidity;BMP_temperature;BMP_pressure;BME280_temperature;BME280_humidity;BME280_pressure;Samples;Min_cycle;Max_cycle;Signal;HPM_P1;HPM_P2
2023/03/21 00:05:27;;;;;;;23.08;10.38;;;7.90;99.90;;;;;;15422546;23;20340;-78
2023/03/21 00:11:29;;;;;;;18.63;9.90;;;7.90;99.90;;;;;;15420454;23;20096;-79
2023/03/21 00:17:32;;;;;;;24.60;12.75;;;7.90;99.90;;;;;;15400063;23;20454;-78
2023/03/21 00:23:35;;;;;;;22.53;10.93;;;7.80;99.90;;;;;;15451056;22;20044;-78
2023/03/21 00:29:37;;;;;;;26.85;13.60;;;7.80;99.90;;;;;;15500909;23;20110;-79
2023/03/21 00:35:46;;;;;;;25.75;12.80;;;7.70;99.90;;;;;;15500112;22;20074;-79
2023/03/21 00:42:05;;;;;;;23.35;11.98;;;7.70;99.90;;;;;;15499533;22;20028;-78
2023/03/21 00:48:08;;;;;;;26.45;12.20;;;7.70;99.90;;;;;;15500968;23;20019;-79
2023/03/21 00:54:12;;;;;;;23.85;11.73;;;7.70;99.90;;;;;;15500044;22;20106;-79
2023/03/21 01:00:17;;;;;;;27.67;13.18;;;7.60;99.90;;;;;;15500666;23;20024;-79
2023/03/21 01:06:21;;;;;;;28.75;14.15;;;7.60;99.90;;;;;;15498267;23;20103;-79
2023/03/21 01:12:23;;;;;;;30.13;14.45;;;7.50;99.90;;;;;;15499433;22;20024;-79
2023/03/21 01:18:28;;;;;;;26.67;13.57;;;7.50;99.90;;;;;;15496822;23;20345;-79
2023/03/21 01:24:30;;;;;;;30.60;16.27;;;7.50;99.90;;;;;;15436554;22;20037;-79
2023/03/21 01:30:34;;;;;;;35.10;16.05;;;7.50;99.90;;;;;;15418225;23;20086;-79
2023/03/21 01:36:42;;;;;;;41.63;17.20;;;7.50;99.90;;;;;;15394329;23;20023;-80
2023/03/21 01:42:45;;;;;;;35.65;16.88;;;7.50;99.90;;;;;;15414633;23;20020;-79
2023/03/21 01:56:29;;;;;;;48.05;19.00;;;7.50;99.90;;;;;;15426059;23;20068;-79
2023/03/21 02:02:31;;;;;;;37.33;19.02;;;7.50;99.90;;;;;;15426206;23;20027;-79
2023/03/21 02:08:33;;;;;;;45.47;20.75;;;7.50;99.90;;;;;;15398518;23;20025;-79
2023/03/21 02:14:41;;;;;;;40.33;20.08;;;7.50;99.90;;;;;;15398984;23;20065;-79
2023/03/21 02:20:49;;;;;;;41.63;21.23;;;7.50;99.90;;;;;;15430483;23;20102;-79
2023/03/21 02:27:02;;;;;;;39.28;21.65;;;7.60;99.90;;;;;;15433028;23;20048;-79
2023/03/21 02:33:13;;;;;;;43.80;24.23;;;7.60;99.90;;;;;;15420094;23;20021;-79
2023/03/21 02:39:39;;;;;;;44.72;22.40;;;7.50;99.90;;;;;;15385093;23;20013;-79
2023/03/21 02:45:44;;;;;;;39.40;22.42;;;7.60;99.90;;;;;;15393754;23;20048;-80
2023/03/21 02:51:48;;;;;;;46.63;22.17;;;7.50;99.90;;;;;;15457448;22;20040;-78
2023/03/21 02:57:52;;;;;;;46.13;23.55;;;7.60;99.90;;;;;;15427926;22;20031;-79
2023/03/21 03:03:54;;;;;;;46.33;24.55;;;7.60;99.90;;;;;;15396841;23;20074;-78
2023/03/21 03:10:11;;;;;;;47.92;24.83;;;7.60;99.90;;;;;;15367385;23;20031;-78
2023/03/21 03:16:35;;;;;;;46.03;23.73;;;7.60;99.90;;;;;;15362720;23;20024;-79
2023/03/21 03:22:44;;;;;;;55.60;24.52;;;7.60;99.90;;;;;;15385546;23;20021;-78
2023/03/21 03:28:58;;;;;;;60.50;26.60;;;7.60;99.90;;;;;;15395265;23;20051;-79
2023/03/21 03:35:01;;;;;;;50.85;26.92;;;7.60;99.90;;;;;;15387464;23;20095;-78
2023/03/21 03:41:11;;;;;;;58.10;27.95;;;7.60;99.90;;;;;;15388989;23;20455;-78
2023/03/21 03:47:30;;;;;;;55.10;28.52;;;7.60;99.90;;;;;;15402595;23;20508;-78
2023/03/21 03:53:59;;;;;;;58.85;28.08;;;7.70;99.90;;;;;;15404876;23;20394;-77
2023/03/21 04:00:05;;;;;;;60.22;28.90;;;7.70;99.90;;;;;;15386697;23;20158;-79
2023/03/21 04:06:07;;;;;;;52.28;29.08;;;7.70;99.90;;;;;;15430783;23;20071;-79
2023/03/21 04:12:09;;;;;;;64.65;29.58;;;7.70;99.90;;;;;;15400978;23;20048;-79
2023/03/21 04:18:11;;;;;;;60.88;27.05;;;7.70;99.90;;;;;;15399108;23;20016;-80
2023/03/21 04:24:13;;;;;;;58.17;27.10;;;7.70;99.90;;;;;;15471524;23;20052;-79
2023/03/21 04:30:18;;;;;;;61.92;29.13;;;7.70;99.90;;;;;;15484646;23;20027;-79
2023/03/21 04:36:25;;;;;;;52.40;26.92;;;7.70;99.90;;;;;;15490961;23;20020;-79
2023/03/21 04:42:27;;;;;;;57.30;27.17;;;7.70;99.90;;;;;;15472416;22;20354;-77
2023/03/21 04:48:29;;;;;;;50.50;25.45;;;7.70;99.90;;;;;;15472838;23;20021;-78
2023/03/21 04:54:31;;;;;;;46.70;24.25;;;7.70;99.90;;;;;;15453870;23;20028;-78
2023/03/21 05:00:37;;;;;;;54.25;24.05;;;7.70;99.90;;;;;;15461331;22;20032;-79
2023/03/21 05:06:41;;;;;;;48.20;23.23;;;7.70;99.90;;;;;;15457977;22;20097;-78
2023/03/21 05:12:44;;;;;;;48.55;22.95;;;7.70;99.90;;;;;;15456419;22;20972;-77
2023/03/21 05:18:49;;;;;;;49.83;22.17;;;7.70;99.90;;;;;;15449831;23;20020;-79
2023/03/21 05:24:54;;;;;;;55.03;22.52;;;7.70;99.90;;;;;;15449464;22;20103;-77
2023/03/21 05:30:56;;;;;;;52.05;21.15;;;7.70;99.90;;;;;;15471126;22;20354;-78
2023/03/21 05:36:58;;;;;;;43.10;19.73;;;7.80;99.90;;;;;;15481380;23;20457;-78
2023/03/21 05:43:00;;;;;;;40.08;19.27;;;7.80;99.90;;;;;;15491013;22;20048;-79
2023/03/21 05:49:02;;;;;;;43.85;19.55;;;7.90;99.90;;;;;;15529445;22;20416;-80
2023/03/21 05:55:04;;;;;;;47.08;20.75;;;8.00;99.90;;;;;;15501662;23;20084;-80
2023/03/21 06:01:06;;;;;;;43.00;18.35;;;8.00;99.90;;;;;;15508534;22;20020;-79
2023/03/21 06:07:08;;;;;;;34.78;17.50;;;8.10;99.90;;;;;;15506647;22;20028;-79
2023/03/21 06:13:10;;;;;;;30.80;18.05;;;8.10;99.90;;;;;;15502373;22;20020;-79
2023/03/21 06:19:13;;;;;;;39.58;17.00;;;8.20;99.90;;;;;;15503322;22;20027;-79
2023/03/21 06:25:15;;;;;;;34.30;16.65;;;8.20;99.90;;;;;;15430295;22;20056;-80
2023/03/21 06:31:24;;;;;;;33.58;15.80;;;8.30;99.90;;;;;;15390194;23;20016;-79
2023/03/21 06:37:26;;;;;;;35.33;16.42;;;8.40;99.90;;;;;;15380659;23;20445;-79
2023/03/21 06:43:27;;;;;;;34.08;14.88;;;8.50;99.90;;;;;;15398569;23;20407;-79
2023/03/21 06:49:30;;;;;;;31.50;14.70;;;8.50;99.90;;;;;;15377280;23;20548;-78
2023/03/21 06:55:32;;;;;;;30.08;13.20;;;8.60;99.90;;;;;;15343274;23;20725;-78
2023/03/21 07:01:36;;;;;;;29.33;12.50;;;8.70;99.90;;;;;;15386658;23;20035;-78
2023/03/21 07:07:38;;;;;;;29.70;13.05;;;8.70;99.90;;;;;;15369974;23;20986;-78
2023/03/21 07:13:40;;;;;;;26.73;12.00;;;8.80;99.90;;;;;;15353504;23;20107;-79
2023/03/21 07:19:42;;;;;;;20.00;11.48;;;8.90;99.90;;;;;;15373901;23;20024;-79
2023/03/21 07:25:47;;;;;;;21.38;11.13;;;9.10;99.90;;;;;;15381676;23;20025;-78
2023/03/21 07:31:49;;;;;;;24.38;11.32;;;9.20;99.90;;;;;;15407992;23;20016;-78
2023/03/21 07:37:51;;;;;;;21.58;10.60;;;9.40;99.90;;;;;;15381152;23;20017;-77
2023/03/21 07:43:53;;;;;;;26.48;12.23;;;9.50;99.90;;;;;;15388359;23;20115;-78
2023/03/21 07:49:55;;;;;;;22.23;11.23;;;9.50;99.90;;;;;;15425952;23;20028;-78
2023/03/21 07:55:57;;;;;;;24.85;11.15;;;9.40;99.90;;;;;;15427544;23;20051;-78
2023/03/21 08:02:00;;;;;;;17.90;10.90;;;9.40;99.90;;;;;;15421343;23;20047;-78
2023/03/21 08:08:03;;;;;;;26.92;12.13;;;9.40;99.90;;;;;;15428118;23;20459;-78
2023/03/21 08:14:05;;;;;;;20.52;10.90;;;9.60;99.90;;;;;;15401539;23;20095;-77
2023/03/21 08:20:10;;;;;;;27.13;12.35;;;9.60;99.90;;;;;;15395229;23;20052;-78
2023/03/21 08:26:16;;;;;;;22.92;11.80;;;9.60;99.90;;;;;;15399661;23;20028;-77
2023/03/21 08:32:19;;;;;;;24.92;11.48;;;9.70;99.90;;;;;;15387577;23;20020;-77
2023/03/21 08:38:20;;;;;;;19.40;10.73;;;9.60;99.90;;;;;;15403310;23;20502;-78
2023/03/21 08:44:24;;;;;;;23.45;10.10;;;9.70;99.90;;;;;;15389423;23;20239;-77
2023/03/21 08:50:28;;;;;;;20.92;10.02;;;9.70;99.90;;;;;;15360949;23;20333;-77
2023/03/21 08:56:30;;;;;;;26.08;10.85;;;9.80;99.90;;;;;;15376471;23;20025;-78
2023/03/21 09:02:32;;;;;;;21.58;9.30;;;9.80;99.90;;;;;;15377640;23;20135;-78
2023/03/21 09:08:35;;;;;;;20.85;10.45;;;9.80;99.90;;;;;;15376734;23;20021;-78
2023/03/21 09:14:36;;;;;;;20.77;9.02;;;9.70;99.90;;;;;;15343678;23;20326;-78
2023/03/21 09:20:39;;;;;;;21.10;10.50;;;9.50;99.90;;;;;;15299792;23;1100115;-78
2023/03/21 09:26:42;;;;;;;24.58;10.15;;;9.60;99.90;;;;;;15346281;23;20523;-78
2023/03/21 09:32:48;;;;;;;22.43;9.77;;;9.50;99.90;;;;;;15414380;23;20013;-78
2023/03/21 09:38:51;;;;;;;24.13;10.57;;;9.50;99.90;;;;;;15409069;23;20021;-78
2023/03/21 09:45:05;;;;;;;18.38;10.75;;;9.40;99.90;;;;;;15394641;23;20028;-79
2023/03/21 09:51:14;;;;;;;21.48;10.60;;;9.60;99.90;;;;;;15427626;23;20533;-78
2023/03/21 09:57:31;;;;;;;23.38;11.00;;;9.50;99.90;;;;;;15400572;23;20072;-79
2023/03/21 10:03:34;;;;;;;28.75;11.60;;;9.50;99.90;;;;;;15373560;23;20029;-80
2023/03/21 10:09:40;;;;;;;27.67;12.10;;;9.40;99.90;;;;;;15402687;23;20462;-79
2023/03/21 10:15:41;;;;;;;30.02;11.68;;;9.50;99.90;;;;;;15428788;23;20101;-79
2023/03/21 10:21:47;;;;;;;21.88;11.55;;;9.60;99.90;;;;;;15423493;23;20115;-78
2023/03/21 10:28:04;;;;;;;25.17;10.93;;;9.70;99.90;;;;;;15422518;23;20017;-78
2023/03/21 10:34:16;;;;;;;24.80;11.10;;;9.80;99.90;;;;;;15380770;23;20343;-78
2023/03/21 10:40:18;;;;;;;25.33;12.32;;;9.70;99.90;;;;;;15372532;23;20063;-78
2023/03/21 10:46:22;;;;;;;21.65;10.73;;;9.70;99.90;;;;;;15391527;23;20027;-78
2023/03/21 10:52:28;;;;;;;20.47;10.53;;;10.00;99.90;;;;;;15378964;23;20381;-79
2023/03/21 10:58:34;;;;;;;16.48;10.40;;;10.00;99.90;;;;;;15357976;23;20594;-79
2023/03/21 11:04:37;;;;;;;20.50;10.52;;;10.00;99.90;;;;;;15384183;23;20576;-79
2023/03/21 11:11:05;;;;;;;20.58;10.45;;;10.00;99.90;;;;;;15347351;23;20021;-79
2023/03/21 11:17:28;;;;;;;18.02;9.60;;;10.10;99.90;;;;;;15342934;23;20021;-80
2023/03/21 11:23:34;;;;;;;25.08;10.13;;;10.10;99.90;;;;;;15407770;22;20359;-79
2023/03/21 11:29:44;;;;;;;16.98;9.30;;;10.30;99.90;;;;;;15464437;23;20210;-79
2023/03/21 11:36:02;;;;;;;20.67;9.30;;;10.40;99.90;;;;;;15484328;22;20172;-78
2023/03/21 11:42:05;;;;;;;17.75;9.30;;;10.50;99.90;;;;;;15479539;22;20032;-79
2023/03/21 11:48:12;;;;;;;16.30;8.05;;;10.50;99.90;;;;;;15499568;23;20012;-79
2023/03/21 11:54:18;;;;;;;20.13;9.40;;;10.50;99.90;;;;;;15495973;23;20427;-79
2023/03/21 12:00:27;;;;;;;17.55;8.25;;;10.40;99.90;;;;;;15497261;23;20098;-80
2023/03/21 12:06:51;;;;;;;17.85;8.63;;;10.30;99.90;;;;;;15498041;23;20012;-79
2023/03/21 12:13:04;;;;;;;17.50;8.32;;;10.40;99.90;;;;;;15500480;22;20016;-78
2023/03/21 12:19:28;;;;;;;16.13;8.00;;;10.40;99.90;;;;;;15496343;22;20012;-78
2023/03/21 12:25:38;;;;;;;15.07;8.07;;;10.50;99.90;;;;;;15496879;23;20099;-79
2023/03/21 12:32:00;;;;;;;16.00;8.05;;;10.40;99.90;;;;;;15477688;22;20094;-79
2023/03/21 12:38:25;;;;;;;20.10;8.65;;;10.30;99.90;;;;;;15483812;22;20031;-79
2023/03/21 12:44:32;;;;;;;19.73;8.75;;;10.10;99.90;;;;;;15479163;22;20172;-80
2023/03/21 12:50:37;;;;;;;16.75;8.27;;;10.00;99.90;;;;;;15485956;22;20020;-79
2023/03/21 12:57:05;;;;;;;24.02;9.63;;;10.00;99.90;;;;;;15470602;23;20295;-79
2023/03/21 13:03:23;;;;;;;15.70;8.45;;;10.10;99.90;;;;;;15474872;23;20020;-79
2023/03/21 13:09:40;;;;;;;17.45;8.38;;;10.10;99.90;;;;;;15480163;22;20343;-79
2023/03/21 13:15:56;;;;;;;17.73;8.27;;;10.10;99.90;;;;;;15463847;23;20455;-79
2023/03/21 13:22:18;;;;;;;14.48;8.15;;;10.30;99.90;;;;;;15433374;22;20028;-79
2023/03/21 13:28:32;;;;;;;16.00;8.05;;;10.20;99.90;;;;;;15365694;23;20645;-79
2023/03/21 13:34:37;;;;;;;14.32;7.82;;;10.30;99.90;;;;;;15378314;23;20024;-79
2023/03/21 13:40:42;;;;;;;;;;;10.20;99.90;;;;;;15398928;23;20079;-79
2023/03/21 13:46:50;;;;;;;14.43;7.85;;;10.20;99.90;;;;;;15445904;23;20089;-79
2023/03/21 13:53:18;;;;;;;15.32;7.75;;;10.30;99.90;;;;;;15399370;23;20032;-79
2023/03/21 13:59:37;;;;;;;;;;;10.50;99.90;;;;;;15423597;23;20025;-79
2023/03/21 14:05:39;;;;;;;12.63;7.85;;;10.50;99.90;;;;;;15443090;22;19919;-79
2023/03/21 14:11:42;;;;;;;14.20;7.18;;;10.50;99.90;;;;;;15392824;23;20187;-78
2023/03/21 14:17:54;;;;;;;12.15;6.78;;;10.60;99.90;;;;;;15404696;23;20020;-79
2023/03/21 14:24:02;;;;;;;14.68;7.07;;;10.50;99.90;;;;;;15427471;23;20024;-79
2023/03/21 14:30:05;;;;;;;12.48;6.07;;;10.50;99.90;;;;;;15427254;23;20669;-78
2023/03/21 14:36:14;;;;;;;10.75;5.47;;;10.50;99.90;;;;;;15361016;23;20020;-78
2023/03/21 14:42:16;;;;;;;9.90;5.43;;;10.50;99.90;;;;;;15388952;23;20036;-77
2023/03/21 14:48:27;;;;;;;11.32;4.95;;;10.60;99.90;;;;;;15403185;23;20113;-78
2023/03/21 14:54:30;;;;;;;12.15;5.20;;;10.70;99.90;;;;;;15401187;23;20028;-78
2023/03/21 15:00:34;;;;;;;8.68;4.68;;;10.80;99.90;;;;;;15425564;23;20012;-77
2023/03/21 15:07:03;;;;;;;9.77;4.88;;;10.70;99.90;;;;;;15427130;23;20019;-78
2023/03/21 15:13:18;;;;;;;10.00;4.13;;;10.70;99.90;;;;;;15404394;23;20027;-78
2023/03/21 15:19:22;;;;;;;;;;;10.70;99.90;;;;;;15393628;23;20017;-79
2023/03/21 15:25:31;;;;;;;8.10;4.43;;;10.70;99.90;;;;;;15427589;23;19920;-79
2023/03/21 15:31:35;;;;;;;8.50;3.50;;;10.70;99.90;;;;;;15430774;23;20020;-79
2023/03/21 15:37:37;;;;;;;10.15;3.83;;;10.70;99.90;;;;;;15399827;23;20017;-79
2023/03/21 15:43:39;;;;;;;5.35;3.50;;;10.60;99.90;;;;;;15402281;23;20035;-79
2023/03/21 15:49:41;;;;;;;7.90;3.38;;;10.60;99.90;;;;;;15399838;23;20027;-78
2023/03/21 15:55:48;;;;;;;6.63;2.53;;;10.70;99.90;;;;;;15427089;23;20503;-78
2023/03/21 16:01:51;;;;;;;13.07;3.42;;;10.60;99.90;;;;;;15398241;23;21143;-79
2023/03/21 16:07:56;;;;;;;6.03;3.10;;;10.60;99.90;;;;;;15397295;23;20090;-79
2023/03/21 16:13:59;;;;;;;8.43;3.15;;;10.60;99.90;;;;;;15400676;23;20020;-78
2023/03/21 16:20:01;;;;;;;7.78;2.60;;;10.60;99.90;;;;;;15400179;23;20025;-80
2023/03/21 16:26:04;;;;;;;7.32;2.67;;;10.50;99.90;;;;;;15426192;23;20017;-78
2023/03/21 16:32:14;;;;;;;6.22;2.60;;;10.50;99.90;;;;;;15400594;23;20021;-78
2023/03/21 16:38:16;;;;;;;8.32;2.63;;;10.50;99.90;;;;;;15420599;23;20021;-78
2023/03/21 16:44:19;;;;;;;6.40;2.38;;;10.40;99.90;;;;;;15417213;23;20042;-79
2023/03/21 16:50:41;;;;;;;5.55;2.67;;;10.40;99.90;;;;;;15464021;22;20005;-80
2023/03/21 16:56:50;;;;;;;6.25;2.15;;;10.40;99.90;;;;;;15461637;22;20004;-79
2023/03/21 17:02:54;;;;;;;5.63;2.10;;;10.60;99.90;;;;;;15463920;22;20032;-78
2023/03/21 17:08:57;;;;;;;6.03;2.05;;;10.40;99.90;;;;;;15414917;23;20028;-79
2023/03/21 17:14:59;;;;;;;9.10;2.13;;;10.30;99.90;;;;;;15405592;23;20521;-79
2023/03/21 17:21:01;;;;;;;5.60;1.80;;;10.10;99.90;;;;;;15405975;23;20033;-79
2023/03/21 17:27:06;;;;;;;5.45;2.50;;;10.10;99.90;;;;;;15401720;23;20021;-79
2023/03/21 17:33:08;;;;;;;5.38;2.13;;;10.00;99.90;;;;;;15392414;23;20074;-79
2023/03/21 17:39:17;;;;;;;5.05;1.90;;;9.90;99.90;;;;;;15395381;23;20100;-79
2023/03/21 17:45:20;;;;;;;5.65;2.42;;;9.80;99.90;;;;;;15426010;23;20106;-79
2023/03/21 17:51:24;;;;;;;6.43;2.00;;;9.80;99.90;;;;;;15430767;23;20017;-80
2023/03/21 17:57:26;;;;;;;7.95;2.40;;;9.70;99.90;;;;;;15399702;23;20339;-79
2023/03/21 18:03:28;;;;;;;4.63;2.50;;;9.80;99.90;;;;;;15400771;23;20052;-79
2023/03/21 18:09:30;;;;;;;5.45;2.35;;;9.70;99.90;;;;;;15397350;23;20067;-79
2023/03/21 18:15:32;;;;;;;8.63;2.30;;;9.80;99.90;;;;;;15394796;23;20115;-78
2023/03/21 18:21:42;;;;;;;6.30;2.70;;;9.70;99.90;;;;;;15427955;23;20031;-79
2023/03/21 18:27:46;;;;;;;4.53;2.40;;;9.70;99.90;;;;;;15427927;23;20985;-79
2023/03/21 18:34:08;;;;;;;5.65;2.38;;;9.80;99.90;;;;;;15419762;23;20055;-79
2023/03/21 18:40:11;;;;;;;4.15;2.60;;;9.70;99.90;;;;;;15398164;23;20938;-79
2023/03/21 18:46:14;;;;;;;5.38;2.50;;;9.60;99.90;;;;;;15392328;23;20103;-79
2023/03/21 18:52:16;;;;;;;6.27;2.40;;;9.60;99.90;;;;;;15403768;23;20343;-80
2023/03/21 18:58:18;;;;;;;7.15;2.97;;;9.60;99.90;;;;;;15400453;23;20013;-81
2023/03/21 19:04:20;;;;;;;5.65;3.10;;;9.60;99.90;;;;;;15423511;23;20017;-80
2023/03/21 19:10:30;;;;;;;6.90;2.97;;;9.70;99.90;;;;;;15426367;23;20107;-78
2023/03/21 19:16:32;;;;;;;7.10;3.10;;;9.70;99.90;;;;;;15427531;23;20047;-78
2023/03/21 19:22:55;;;;;;;8.18;3.00;;;9.80;99.90;;;;;;15431098;23;20035;-79
2023/03/21 19:28:57;;;;;;;6.38;2.97;;;9.80;99.90;;;;;;15431411;23;20021;-78
2023/03/21 19:34:59;;;;;;;5.97;2.78;;;9.80;99.90;;;;;;15418745;23;20025;-78
2023/03/21 19:41:02;;;;;;;6.25;3.20;;;9.80;99.90;;;;;;15400221;23;20017;-78
2023/03/21 19:47:05;;;;;;;6.45;3.25;;;9.70;99.90;;;;;;15427201;23;20032;-79
2023/03/21 19:53:07;;;;;;;4.75;2.80;;;9.70;99.90;;;;;;15433960;23;20329;-78
2023/03/21 19:59:09;;;;;;;6.78;3.13;;;9.60;99.90;;;;;;15421534;23;20462;-79
2023/03/21 20:05:12;;;;;;;10.15;3.00;;;9.60;99.90;;;;;;15390305;23;20025;-78
2023/03/21 20:11:14;;;;;;;8.20;3.60;;;9.60;99.90;;;;;;15399204;23;20044;-78
2023/03/21 20:17:16;;;;;;;10.02;3.83;;;9.60;99.90;;;;;;15422370;23;20052;-79
2023/03/21 20:23:18;;;;;;;6.88;3.63;;;9.50;99.90;;;;;;15388958;23;20036;-79
2023/03/21 20:29:21;;;;;;;8.30;3.67;;;9.50;99.90;;;;;;15393398;23;20066;-79
2023/03/21 20:35:43;;;;;;;9.30;3.90;;;9.60;99.90;;;;;;15398981;23;20032;-79
2023/03/21 20:42:05;;;;;;;5.90;3.78;;;9.60;99.90;;;;;;15398471;23;20032;-78
2023/03/21 20:48:07;;;;;;;8.52;4.00;;;9.60;99.90;;;;;;15418628;23;20075;-78
2023/03/21 20:54:10;;;;;;;6.85;4.03;;;9.50;99.90;;;;;;15425271;23;20463;-79
2023/03/21 21:00:14;;;;;;;7.43;4.22;;;9.40;99.90;;;;;;15384881;23;20020;-78
2023/03/21 21:06:18;;;;;;;6.90;4.20;;;9.30;99.90;;;;;;15418173;23;20052;-78
2023/03/21 21:12:26;;;;;;;11.20;4.63;;;9.30;99.90;;;;;;15423150;23;20075;-79
2023/03/21 21:18:29;;;;;;;8.23;4.95;;;9.20;99.90;;;;;;15400366;23;20027;-79
2023/03/21 21:24:31;;;;;;;8.32;4.82;;;9.30;99.90;;;;;;15484449;23;20062;-78
2023/03/21 21:30:36;;;;;;;8.30;4.68;;;9.30;99.90;;;;;;15506018;23;20024;-80
2023/03/21 21:36:39;;;;;;;8.48;5.18;;;9.30;99.90;;;;;;15504288;22;20327;-78
2023/03/21 21:42:42;;;;;;;8.90;4.97;;;9.40;99.90;;;;;;15506120;22;20030;-79
2023/03/21 21:48:44;;;;;;;7.20;4.60;;;9.50;99.90;;;;;;15497284;23;20016;-78
2023/03/21 21:54:47;;;;;;;8.73;4.82;;;9.60;99.90;;;;;;15505952;22;20047;-78
2023/03/21 22:00:50;;;;;;;7.22;4.53;;;9.50;99.90;;;;;;15498255;23;20031;-78
2023/03/21 22:06:53;;;;;;;8.93;5.65;;;9.60;99.90;;;;;;15507847;23;20346;-79
2023/03/21 22:12:55;;;;;;;9.00;5.13;;;9.50;99.90;;;;;;15505306;22;20474;-79
2023/03/21 22:18:57;;;;;;;11.10;5.07;;;9.40;99.90;;;;;;15505285;22;20039;-78
2023/03/21 22:24:59;;;;;;;7.97;5.20;;;9.30;99.90;;;;;;15434958;23;20082;-78
2023/03/21 22:31:13;;;;;;;8.93;4.88;;;9.30;99.90;;;;;;15428774;23;20051;-77
2023/03/21 22:37:15;;;;;;;8.02;5.00;;;9.20;99.90;;;;;;15405076;23;20016;-77
2023/03/21 22:43:17;;;;;;;11.88;5.32;;;9.00;99.90;;;;;;15423194;23;20090;-78
2023/03/21 22:49:19;;;;;;;13.32;5.38;;;9.10;99.90;;;;;;15430862;23;20019;-78
2023/03/21 22:55:21;;;;;;;11.52;5.90;;;9.10;99.90;;;;;;15424288;23;20466;-79
2023/03/21 23:01:23;;;;;;;8.38;5.43;;;9.20;99.90;;;;;;15421451;23;20016;-80
2023/03/21 23:07:25;;;;;;;9.07;5.40;;;9.10;99.90;;;;;;15427590;23;20025;-79
2023/03/21 23:13:27;;;;;;;10.45;5.75;;;9.10;99.90;;;;;;15403242;23;20463;-80
2023/03/21 23:19:30;;;;;;;8.48;5.15;;;9.20;99.90;;;;;;15400236;22;20063;-80
2023/03/21 23:25:32;;;;;;;9.38;4.90;;;9.30;99.90;;;;;;15402979;23;20025;-77
2023/03/21 23:31:35;;;;;;;9.38;5.30;;;9.30;99.90;;;;;;15427634;23;20026;-79
2023/03/21 23:37:41;;;;;;;12.05;5.50;;;9.30;99.90;;;;;;15424730;23;20107;-78
2023/03/21 23:43:43;;;;;;;8.50;4.95;;;9.50;99.90;;;;;;15396359;23;20024;-78
2023/03/21 23:49:47;;;;;;;9.73;5.28;;;9.40;99.90;;;;;;15397585;23;20104;-78
2023/03/21 23:55:57;;;;;;;9.35;5.15;;;9.40;99.90;;;;;;15401056;23;20120;-78
